ДАННЫЕ О ПОГОДЕ

ВЧЕРА
Time Темп. Т росы. Влаж. Направле Скорость в Wind gust Давл.
00:08 19.6 14.8 74 0 0 1010.6
00:18 19.4 14.7 74 0 0 1010.5
00:28 19.3 14.6 74 0 0 1010.5
00:38 19.2 14.5 74 0 0 1010.4
00:48 19.1 14.6 75 0 0 1010.4
00:58 19 14.5 75 0 0 1010.2
01:08 18.9 14.4 75 0 0 1010.2
01:18 18.8 14.3 75 0 0 1010.2
01:28 18.7 14.2 75 0 0 1010.3
01:38 18.7 14.2 75 0 0 1010.1
01:48 18.6 14.1 75 0 0 1010.2
01:59 18.6 14.1 75 0 0 1010.1
02:08 18.7 14.4 76 0 0 1009.9
02:18 18.7 14.4 76 0 0 1009.9
02:29 18.7 14.4 76 0 0 1009.9
02:39 18.8 14.5 76 0 0 1009.9
02:48 18.9 14.6 76 0 0 1009.8
02:58 18.9 14.6 76 0 0 1009.6
03:09 19 14.7 76 0 0 1009.5
03:19 19 14.7 76 0 0 1009.8
03:28 18.8 14.5 76 0 0 1009.9
03:39 18.6 14.3 76 0 0 1010.1
03:49 18.3 13.8 75 0 0 1010.1
03:59 17.9 13.4 75 0 0 1010.2
04:09 17.5 13 75 0 0 1010.1
04:19 17.3 12.8 75 0 0 1010.1
04:29 17 12.5 75 0 0 1010.1
04:39 16.8 12.3 75 0 0 1010.1
04:49 16.6 12.2 75 0 0 1009.9
04:59 16.5 12.1 75 0 0 1009.9
05:09 16.4 12 75 0 0 1009.9
05:19 16.2 11.8 75 0 0 1010.2
05:29 16.1 11.7 75 0 0 1010.2
05:39 16 11.6 75 0 0 1010.3
05:49 15.9 11.5 75 0 0 1010.3
06:00 15.9 11.7 76 0 0 1010.3
06:09 15.9 11.7 76 0 0 1010.3
06:19 15.9 11.7 76 0 0 1010.4
06:29 15.9 11.7 76 0 0 1010.5
06:40 15.9 11.7 76 0 0 1010.8
06:49 15.9 11.7 76 0 0 1010.9
06:59 15.9 11.7 76 0 0 1010.9
07:10 16 11.8 76 0 0 1011.1
07:20 16.1 11.9 76 0 0 1011.1
07:29 16.2 12 76 0 0 1011.1
07:40 16.3 12.1 76 0 0 1011.3
07:50 16.4 12.2 76 0 0 1011.3
08:00 16.6 12.4 76 0 0 1011.2
08:10 16.8 12.6 76 0 0 1011.3
08:20 16.9 12.6 76 0 0 1011.3
08:30 17 12.7 76 0 0 1011.5
08:40 17.3 13 76 0 0 1011.5
08:50 17.6 13.3 76 0 0 1011.5
09:00 17.9 13.4 75 0 0 1011.6
09:10 17.9 13.4 75 0 0 1011.8
09:20 17.9 13.2 74 0 0 1011.8
09:31 18.2 13.5 74 0 0 1011.7
09:40 18.3 13.6 74 0 0 1011.9
09:50 18.5 13.6 73 0 0 1011.9
10:01 18.5 13.6 73 0 0 1011.9
10:11 18.5 13.6 73 0 0 1012
10:20 18.9 13.7 72 0 0 1011.9
10:30 19.1 13.9 72 0 0 1012.1
10:41 19.5 14.1 71 0 0 1012
10:51 20 14.6 71 0 0 1012
11:00 20.3 14.7 70 0 0 1011.8
11:11 20.7 14.8 69 0 0 1011.7
11:21 20.8 14.7 68 0 0 1011.7
11:31 20.9 14.5 67 0 0 1011.7
11:41 20.7 14.1 66 0 0 1011.6
11:51 20.6 14 66 0 0 1011.6
12:01 20.7 14.1 66 0 0 1011.7
12:11 20.6 13.8 65 0 0 1011.7
12:21 20.7 13.9 65 0 0 1011.7
12:31 20.7 13.7 64 0 0 1011.7
12:41 20.6 13.6 64 0 0 1011.8
12:51 20.6 13.6 64 0 0 1011.9
13:01 20.7 13.7 64 0 0 1011.9
13:11 20.5 13.2 63 0 0 1011.9
13:21 20.5 13.2 63 0 0 1011.9
13:32 20.4 13.1 63 0 0 1011.9
13:41 20.3 13 63 0 0 1011.7
13:51 20.4 13.1 63 0 0 1011.6
14:02 20.5 13.2 63 0 0 1011.5
14:12 20.7 13.4 63 0 0 1011.4
14:21 20.9 13.6 63 0 0 1011.5
14:31 21 13.4 62 0 0 1011.5
14:42 21.1 13.5 62 0 0 1011.5
14:52 21.1 13.3 61 0 0 1011.5
15:01 21.1 13.3 61 0 0 1011.4
15:12 21 13.2 61 0 0 1011.3
15:22 20.9 13.1 61 0 0 1011.3
15:32 20.9 13.1 61 0 0 1011.2
15:42 20.8 13 61 0 0 1011.2
15:52 21 13.2 61 0 0 1011.2
16:02 21.2 13.1 60 0 0 1011.2
16:12 21.1 13 60 0 0 1011.3
16:23 20.9 12.6 59 0 0 1011.2
16:32 20.8 12.8 60 0 0 1011.2
16:42 20.7 12.7 60 0 0 1011.1
16:52 20.5 12.5 60 0 0 1011
17:03 20.4 12.4 60 0 0 1011
17:12 20.4 12.6 61 0 0 1011.1
17:22 20.2 12.4 61 0 0 1011.1
17:33 20.1 12.4 61 0 0 1011.2
17:43 20.1 12.6 62 0 0 1011.2
17:52 19.9 12.4 62 0 0 1011.1
18:02 19.8 12.3 62 0 0 1011.2
18:13 19.7 12.2 62 0 0 1011.3
18:23 19.4 11.9 62 0 0 1011.4
18:32 19.1 11.9 63 0 0 1011.4
18:43 18.7 11.5 63 0 0 1011.3
18:53 18.3 11.4 64 0 0 1011.4
19:03 17.7 11 65 0 0 1011.5
19:13 17.4 11 66 0 0 1011.6
19:23 17 10.6 66 0 0 1011.6
19:33 16.6 10.5 67 0 0 1011.7
19:43 16.2 10.1 67 0 0 1011.7
19:53 15.9 10 68 0 0 1011.8
20:03 15.5 9.6 68 0 0 1011.8
20:13 15.3 9.7 69 0 0 1011.9
20:23 15.1 9.5 69 0 0 1011.8
20:33 15.2 9.8 70 0 0 1011.8
20:43 15.2 9.8 70 0 0 1012
20:53 15.1 9.7 70 0 0 1012.1
21:04 15.1 9.7 70 0 0 1012.1
21:14 15.2 10 71 0 0 1012.1
21:23 15.1 9.9 71 0 0 1012.1
21:34 15.2 10 71 0 0 1012.1
21:44 15.3 10.1 71 0 0 1012.2
21:54 15.5 10.1 70 0 0 1012.2
22:03 15.5 10.1 70 0 0 1012.1
22:14 15.5 10.1 70 0 0 1012.1
22:24 15.4 10 70 0 0 1012.1
22:34 15.4 10 70 0 0 1012.2
22:44 15.3 9.9 70 0 0 1012.1
22:54 15.4 10 70 0 0 1012.1
23:04 15.4 10 70 0 0 1012.1
23:14 15.4 10 70 0 0 1012.1
23:25 15.4 10 70 0 0 1012.1
23:34 15.4 10 70 0 0 1012.1
23:44 15.5 10.1 70 0 0 1012.2
23:55 15.5 10.1 70 0 0 1012.1

СТАТИСТИКА ЗА ДЕНЬ

2021-09-17
TЕМПЕРАТУРА
СРЕДНЯЯ
18.2
МАКСИМАЛЬНАЯ
21.2
16:02
МИНИМАЛЬНАЯ
15.1
20:23
ДАВЛЕНИЕ
СРЕДНЯЯ
1011.2
МАКСИМАЛЬНАЯ
1012.2
21:44
МИНИМАЛЬНАЯ
1009.5
03:09
ТОЧКА РОСЫ
СРЕДНЯЯ
12.5
МАКСИМАЛЬНАЯ
14.8
00:08
МИНИМАЛЬНАЯ
9.5
20:23
ВЛАЖНОСТЬ
СРЕДНЯЯ
70
МАКСИМАЛЬНАЯ
76
02:08
МИНИМАЛЬНАЯ
59
16:23
СКОРОСТЬ ВЕТРА
СРЕДНЯЯ
0.0
МАКСИМАЛЬНАЯ
0.0
17:03
WIND GUST
СРЕДНЯЯ
0.0
МАКСИМАЛЬНАЯ
0.0
17:03
НАПРАВЛЕНИЕ ВЕТРА
PREVAILING
%
TЕМПЕРАТУРА (°C)
МИНИМАЛЬНАЯ
15.1
МАКСИМАЛЬНАЯ
21.2
СРЕДНЯЯ
18.2
ДАВЛЕНИЕ (hpa)
МИНИМАЛЬНАЯ
1009.5
МАКСИМАЛЬНАЯ
1012.2
СРЕДНЯЯ
1011.2
УСТРОЙСТВО